Time,TemperatureF,DewpointF,PressureIn,WindDirection,WindDirectionDegrees,WindSpeedMPH,WindSpeedGustMPH,Humidity,HourlyPrecipIn,Conditions,Clouds,dailyrainin,SoftwareType,DateUTC
2013-10-22 00:00:00,49.3,46.5,30.14,North,1,0.0,0.0,90,0.00,CLR,SKC,0.00,WeatherDisplay:10.37,2013-10-21 22:00:00,
2013-10-22 00:10:00,49.3,46.4,30.14,North,1,0.0,0.0,90,0.00,CLR,SKC,0.00,WeatherDisplay:10.37,2013-10-21 22:10:00,
2013-10-22 00:20:00,49.3,46.5,30.14,North,1,0.0,0.0,90,0.00,CLR,SKC,0.00,WeatherDisplay:10.37,2013-10-21 22:20:00,
2013-10-22 00:30:00,49.1,46.3,30.14,North,1,0.0,0.0,90,0.00,CLR,SKC,0.00,WeatherDisplay:10.37,2013-10-21 22:30:00,
2013-10-22 00:40:00,48.7,45.9,30.14,North,1,0.0,0.0,90,0.00,CLR,SKC,0.00,WeatherDisplay:10.37,2013-10-21 22:40:00,
2013-10-22 00:50:00,48.5,46.0,30.14,North,1,0.0,0.0,91,0.00,CLR,SKC,0.00,WeatherDisplay:10.37,2013-10-21 22:50:00,
2013-10-22 01:00:00,48.4,45.9,30.14,North,1,0.0,0.0,91,0.00,CLR,SKC,0.00,WeatherDisplay:10.37,2013-10-21 23:00:00,
2013-10-22 01:10:00,48.6,46.1,30.14,North,1,0.0,0.0,91,0.00,CLR,SKC,0.00,WeatherDisplay:10.37,2013-10-21 23:10:00,
2013-10-22 01:20:00,48.7,46.2,30.15,North,1,0.0,0.0,91,0.00,CLR,SKC,0.00,WeatherDisplay:10.37,2013-10-21 23:20:00,
2013-10-22 01:30:00,48.7,46.2,30.14,North,1,0.0,0.0,91,0.00,CLR,SKC,0.00,WeatherDisplay:10.37,2013-10-21 23:30:00,
2013-10-22 01:40:00,48.7,46.2,30.14,North,1,0.0,0.0,91,0.00,CLR,SKC,0.00,WeatherDisplay:10.37,2013-10-21 23:40:00,
2013-10-22 01:50:00,48.6,46.1,30.14,North,1,0.0,0.0,91,0.00,CLR,SKC,0.00,WeatherDisplay:10.37,2013-10-21 23:50:00,
2013-10-22 02:00:00,48.6,46.1,30.14,North,1,0.0,0.0,91,0.00,CLR,SKC,0.00,WeatherDisplay:10.37,2013-10-22 00:00:00,
2013-10-22 02:10:00,48.2,45.7,30.14,North,1,0.0,0.0,91,0.00,CLR,SKC,0.00,WeatherDisplay:10.37,2013-10-22 00:10:00,
2013-10-22 02:20:00,48.0,45.5,30.14,North,1,0.0,0.0,91,0.00,CLR,SKC,0.00,WeatherDisplay:10.37,2013-10-22 00:20:00,
2013-10-22 02:30:00,48.0,45.5,30.14,North,1,0.0,0.0,91,0.00,CLR,SKC,0.00,WeatherDisplay:10.37,2013-10-22 00:30:00,
2013-10-22 02:40:00,47.8,45.3,30.14,North,1,0.0,0.0,91,0.00,CLR,SKC,0.00,WeatherDisplay:10.37,2013-10-22 00:40:00,
2013-10-22 02:50:00,47.7,45.2,30.14,North,1,0.0,0.0,91,0.00,CLR,SKC,0.00,WeatherDisplay:10.37,2013-10-22 00:50:00,
2013-10-22 03:00:00,47.5,45.0,30.14,North,1,0.0,0.0,91,0.00,CLR,SKC,0.00,WeatherDisplay:10.37,2013-10-22 01:00:00,
2013-10-22 03:10:00,47.3,44.8,30.14,North,1,0.0,0.0,91,0.00,CLR,SKC,0.00,WeatherDisplay:10.37,2013-10-22 01:10:00,
2013-10-22 03:20:00,47.3,44.8,30.14,North,1,0.0,0.0,91,0.00,CLR,SKC,0.00,WeatherDisplay:10.37,2013-10-22 01:20:00,
2013-10-22 03:30:00,47.3,44.8,30.14,North,1,0.0,0.0,91,0.00,CLR,SKC,0.00,WeatherDisplay:10.37,2013-10-22 01:30:00,
2013-10-22 03:40:00,47.5,45.0,30.13,North,1,0.0,0.0,91,0.00,CLR,SKC,0.00,WeatherDisplay:10.37,2013-10-22 01:40:00,
2013-10-22 03:50:00,47.1,44.6,30.13,North,1,0.0,0.0,91,0.00,CLR,SKC,0.00,WeatherDisplay:10.37,2013-10-22 01:50:00,
2013-10-22 04:00:00,47.1,44.6,30.13,North,1,0.0,0.0,91,0.00,CLR,SKC,0.00,WeatherDisplay:10.37,2013-10-22 02:00:00,
2013-10-22 04:10:00,47.1,44.6,30.13,North,1,0.0,0.0,91,0.00,CLR,SKC,0.00,WeatherDisplay:10.37,2013-10-22 02:10:00,
2013-10-22 04:20:00,47.3,44.8,30.12,North,1,0.0,0.0,91,0.00,CLR,SKC,0.00,WeatherDisplay:10.37,2013-10-22 02:20:00,
2013-10-22 04:30:00,47.3,44.8,30.13,North,1,0.0,0.0,91,0.00,CLR,SKC,0.00,WeatherDisplay:10.37,2013-10-22 02:30:00,
2013-10-22 04:40:00,47.5,45.0,30.13,North,1,0.0,0.0,91,0.00,CLR,SKC,0.00,WeatherDisplay:10.37,2013-10-22 02:40:00,
2013-10-22 04:50:00,47.5,45.0,30.13,North,1,0.0,0.0,91,0.00,CLR,SKC,0.00,WeatherDisplay:10.37,2013-10-22 02:50:00,
2013-10-22 05:00:00,47.3,44.8,30.13,North,1,0.0,0.0,91,0.00,CLR,SKC,0.00,WeatherDisplay:10.37,2013-10-22 03:00:00,
2013-10-22 05:10:00,47.3,44.8,30.13,North,1,0.0,0.0,91,0.00,CLR,SKC,0.00,WeatherDisplay:10.37,2013-10-22 03:10:00,
2013-10-22 05:20:00,47.8,45.3,30.13,North,1,0.0,0.0,91,0.00,CLR,SKC,0.00,WeatherDisplay:10.37,2013-10-22 03:20:00,
2013-10-22 05:30:00,48.4,46.2,30.14,North,1,0.0,0.0,92,0.00,CLR,SKC,0.00,WeatherDisplay:10.37,2013-10-22 03:30:00,
2013-10-22 05:40:00,48.7,46.5,30.13,North,1,0.0,0.0,92,0.00,CLR,SKC,0.00,WeatherDisplay:10.37,2013-10-22 03:40:00,
2013-10-22 05:50:00,48.4,46.2,30.13,North,1,0.0,0.0,92,0.00,CLR,SKC,0.00,WeatherDisplay:10.37,2013-10-22 03:50:00,
2013-10-22 06:00:00,48.6,46.3,30.13,North,1,0.0,0.0,92,0.00,CLR,SKC,0.00,WeatherDisplay:10.37,2013-10-22 04:00:00,
2013-10-22 06:10:00,48.4,46.2,30.13,North,1,0.0,0.0,92,0.00,CLR,SKC,0.00,WeatherDisplay:10.37,2013-10-22 04:10:00,
2013-10-22 06:20:00,48.2,46.0,30.12,North,1,0.0,0.0,92,0.00,CLR,SKC,0.00,WeatherDisplay:10.37,2013-10-22 04:20:00,
2013-10-22 06:30:00,48.0,45.5,30.13,North,1,0.0,0.0,91,0.00,CLR,SKC,0.00,WeatherDisplay:10.37,2013-10-22 04:30:00,
2013-10-22 06:40:00,48.0,45.5,30.13,North,1,0.0,0.0,91,0.00,CLR,SKC,0.00,WeatherDisplay:10.37,2013-10-22 04:40:00,
2013-10-22 06:50:00,47.8,45.3,30.13,North,1,0.0,0.0,91,0.00,CLR,SKC,0.00,WeatherDisplay:10.37,2013-10-22 04:50:00,
2013-10-22 07:00:00,47.7,45.2,30.13,North,1,0.0,0.0,91,0.00,CLR,SKC,0.00,WeatherDisplay:10.37,2013-10-22 05:00:00,
2013-10-22 07:10:00,47.5,45.3,30.13,North,1,0.0,0.0,92,0.00,CLR,SKC,0.00,WeatherDisplay:10.37,2013-10-22 05:10:00,
2013-10-22 07:20:00,47.3,45.1,30.14,North,1,0.0,0.0,92,0.00,CLR,SKC,0.00,WeatherDisplay:10.37,2013-10-22 05:20:00,
2013-10-22 07:30:00,47.1,44.9,30.14,North,1,0.0,0.0,92,0.00,CLR,SKC,0.00,WeatherDisplay:10.37,2013-10-22 05:30:00,
2013-10-22 07:40:00,47.5,45.3,30.14,North,1,0.0,0.0,92,0.00,CLR,SKC,0.00,WeatherDisplay:10.37,2013-10-22 05:40:00,
2013-10-22 07:50:00,48.0,45.8,30.14,North,1,0.0,0.0,92,0.00,CLR,SKC,0.00,WeatherDisplay:10.37,2013-10-22 05:50:00,
2013-10-22 08:00:00,48.4,46.2,30.15,North,1,0.0,0.0,92,0.00,CLR,SKC,0.00,WeatherDisplay:10.37,2013-10-22 06:00:00,
2013-10-22 08:10:00,48.9,46.7,30.15,North,1,0.0,0.0,92,0.00,CLR,SKC,0.00,WeatherDisplay:10.37,2013-10-22 06:10:00,
2013-10-22 08:20:00,50.3,48.1,30.15,North,1,0.0,0.0,92,0.00,CLR,SKC,0.00,WeatherDisplay:10.37,2013-10-22 06:20:00,
2013-10-22 08:30:00,51.3,49.1,30.15,North,1,0.0,0.0,92,0.00,CLR,SKC,0.00,WeatherDisplay:10.37,2013-10-22 06:30:00,
2013-10-22 08:40:00,52.5,50.3,30.15,North,1,0.0,0.0,92,0.00,CLR,SKC,0.00,WeatherDisplay:10.37,2013-10-22 06:40:00,
2013-10-22 08:50:00,53.4,51.2,30.15,North,1,0.0,0.0,92,0.00,CLR,SKC,0.00,WeatherDisplay:10.37,2013-10-22 06:50:00,
2013-10-22 09:00:00,54.1,51.9,30.15,North,1,0.0,0.0,92,0.00,CLR,SKC,0.00,WeatherDisplay:10.37,2013-10-22 07:00:00,
2013-10-22 09:10:00,55.0,53.1,30.15,North,1,0.0,0.0,93,0.00,CLR,SKC,0.00,WeatherDisplay:10.37,2013-10-22 07:10:00,
2013-10-22 09:20:00,55.6,53.6,30.15,North,1,0.0,0.0,93,0.00,CLR,SKC,0.00,WeatherDisplay:10.37,2013-10-22 07:20:00,
2013-10-22 09:30:00,56.1,53.8,30.15,North,1,0.0,0.0,92,0.00,CLR,SKC,0.00,WeatherDisplay:10.37,2013-10-22 07:30:00,
2013-10-22 09:40:00,57.0,54.7,30.15,North,1,0.0,0.0,92,0.00,CLR,SKC,0.00,WeatherDisplay:10.37,2013-10-22 07:40:00,
2013-10-22 09:50:00,58.0,55.7,30.15,North,1,0.0,0.0,92,0.00,CLR,SKC,0.00,WeatherDisplay:10.37,2013-10-22 07:50:00,
2013-10-22 10:00:00,59.2,56.8,30.16,North,1,0.0,0.0,92,0.00,CLR,SKC,0.00,WeatherDisplay:10.37,2013-10-22 08:00:00,
2013-10-22 10:10:00,57.9,55.6,30.16,North,1,0.0,0.0,92,0.00,CLR,SKC,0.00,WeatherDisplay:10.37,2013-10-22 08:10:00,
2013-10-22 10:20:00,57.0,54.4,30.16,North,1,0.0,0.0,91,0.00,CLR,SKC,0.00,WeatherDisplay:10.37,2013-10-22 08:20:00,
2013-10-22 10:30:00,56.1,53.5,30.16,North,1,0.0,0.0,91,0.00,CLR,SKC,0.00,WeatherDisplay:10.37,2013-10-22 08:30:00,
2013-10-22 10:40:00,55.9,52.7,30.16,North,1,0.0,0.0,89,0.00,CLR,SKC,0.00,WeatherDisplay:10.37,2013-10-22 08:40:00,
2013-10-22 10:50:00,56.5,53.0,30.16,North,1,0.0,0.0,88,0.00,CLR,SKC,0.00,WeatherDisplay:10.37,2013-10-22 08:50:00,
2013-10-22 11:00:00,57.2,53.1,30.16,North,1,0.0,0.0,86,0.00,CLR,SKC,0.00,WeatherDisplay:10.37,2013-10-22 09:00:00,
2013-10-22 11:10:00,57.7,53.3,30.15,North,1,0.0,0.0,85,0.00,CLR,SKC,0.00,WeatherDisplay:10.37,2013-10-22 09:10:00,
2013-10-22 11:20:00,58.1,53.3,30.15,North,1,0.0,0.0,84,0.00,CLR,SKC,0.00,WeatherDisplay:10.37,2013-10-22 09:20:00,
2013-10-22 11:30:00,58.3,53.2,30.15,North,1,0.0,0.0,83,0.00,CLR,SKC,0.00,WeatherDisplay:10.37,2013-10-22 09:30:00,
2013-10-22 11:40:00,58.3,53.1,30.15,North,1,0.0,0.0,83,0.00,CLR,SKC,0.00,WeatherDisplay:10.37,2013-10-22 09:40:00,
2013-10-22 11:50:00,58.3,53.1,30.16,North,1,0.0,0.0,83,0.00,CLR,SKC,0.00,WeatherDisplay:10.37,2013-10-22 09:50:00,
2013-10-22 12:00:00,58.5,53.4,30.15,North,1,0.0,0.0,83,0.00,CLR,SKC,0.00,WeatherDisplay:10.37,2013-10-22 10:00:00,
2013-10-22 12:10:00,58.5,53.3,30.15,North,1,0.0,0.0,83,0.00,CLR,SKC,0.00,WeatherDisplay:10.37,2013-10-22 10:10:00,
2013-10-22 12:20:00,58.6,53.5,30.15,North,1,0.0,0.0,83,0.00,CLR,SKC,0.00,WeatherDisplay:10.37,2013-10-22 10:20:00,
2013-10-22 12:30:00,59.6,54.7,30.15,North,1,0.0,0.0,84,0.00,CLR,SKC,0.00,WeatherDisplay:10.37,2013-10-22 10:30:00,
2013-10-22 12:40:00,61.0,55.8,30.14,North,1,0.0,0.0,83,0.00,CLR,SKC,0.00,WeatherDisplay:10.37,2013-10-22 10:40:00,
2013-10-22 12:50:00,61.7,55.8,30.14,North,1,0.0,0.0,81,0.00,CLR,SKC,0.00,WeatherDisplay:10.37,2013-10-22 10:50:00,
2013-10-22 13:00:00,62.5,56.6,30.14,North,1,0.0,0.0,81,0.00,CLR,SKC,0.00,WeatherDisplay:10.37,2013-10-22 11:00:00,
2013-10-22 13:10:00,63.5,57.2,30.13,North,1,0.0,0.0,80,0.00,CLR,SKC,0.00,WeatherDisplay:10.37,2013-10-22 11:10:00,
2013-10-22 13:20:00,64.0,57.0,30.13,North,1,0.0,0.0,78,0.00,CLR,SKC,0.00,WeatherDisplay:10.37,2013-10-22 11:20:00,
2013-10-22 13:30:00,64.2,57.2,30.13,North,1,0.0,0.0,78,0.00,CLR,SKC,0.00,WeatherDisplay:10.37,2013-10-22 11:30:00,
2013-10-22 13:40:00,64.2,57.6,30.12,North,1,0.0,0.0,79,0.00,CLR,SKC,0.00,WeatherDisplay:10.37,2013-10-22 11:40:00,
2013-10-22 13:50:00,64.2,57.6,30.12,North,1,0.0,0.0,79,0.00,CLR,SKC,0.00,WeatherDisplay:10.37,2013-10-22 11:50:00,
2013-10-22 14:00:00,64.6,57.9,30.12,North,1,0.0,0.0,79,0.00,CLR,SKC,0.00,WeatherDisplay:10.37,2013-10-22 12:00:00,
2013-10-22 14:10:00,64.6,57.9,30.11,North,1,0.0,0.0,79,0.00,CLR,SKC,0.00,WeatherDisplay:10.37,2013-10-22 12:10:00,
2013-10-22 14:20:00,64.9,57.9,30.11,North,1,0.0,0.0,78,0.00,CLR,SKC,0.00,WeatherDisplay:10.37,2013-10-22 12:20:00,
2013-10-22 14:30:00,65.2,58.2,30.11,North,1,0.0,0.0,78,0.00,CLR,SKC,0.00,WeatherDisplay:10.37,2013-10-22 12:30:00,
2013-10-22 14:40:00,65.1,58.1,30.11,North,1,0.0,0.0,78,0.00,CLR,SKC,0.00,WeatherDisplay:10.37,2013-10-22 12:40:00,
2013-10-22 14:50:00,65.5,58.4,30.11,North,1,0.0,0.0,78,0.00,CLR,SKC,0.00,WeatherDisplay:10.37,2013-10-22 12:50:00,
2013-10-22 15:00:00,66.0,58.5,30.10,North,1,0.0,0.0,77,0.00,CLR,SKC,0.00,WeatherDisplay:10.37,2013-10-22 13:00:00,
2013-10-22 15:10:00,66.7,58.9,30.10,North,1,0.0,0.0,76,0.00,CLR,SKC,0.00,WeatherDisplay:10.37,2013-10-22 13:10:00,
2013-10-22 15:20:00,67.3,57.9,30.11,North,1,0.0,0.0,72,0.00,CLR,SKC,0.00,WeatherDisplay:10.37,2013-10-22 13:20:00,
2013-10-22 15:30:00,67.5,58.1,30.10,North,1,0.0,0.0,72,0.00,CLR,SKC,0.00,WeatherDisplay:10.37,2013-10-22 13:30:00,
2013-10-22 15:40:00,67.8,58.1,30.10,North,1,0.0,0.0,71,0.00,CLR,SKC,0.00,WeatherDisplay:10.37,2013-10-22 13:40:00,
2013-10-22 15:50:00,67.8,58.1,30.10,North,1,0.0,0.0,71,0.00,CLR,SKC,0.00,WeatherDisplay:10.37,2013-10-22 13:50:00,
2013-10-22 16:00:00,68.2,58.4,30.10,North,1,0.0,0.0,71,0.00,CLR,SKC,0.00,WeatherDisplay:10.37,2013-10-22 14:00:00,
2013-10-22 16:10:00,67.8,57.7,30.10,North,1,0.0,0.0,70,0.00,CLR,SKC,0.00,WeatherDisplay:10.37,2013-10-22 14:10:00,
2013-10-22 16:20:00,67.3,57.9,30.10,North,1,0.0,0.0,72,0.00,CLR,SKC,0.00,WeatherDisplay:10.37,2013-10-22 14:20:00,
2013-10-22 16:30:00,66.8,57.5,30.10,North,1,0.0,0.0,72,0.00,CLR,SKC,0.00,WeatherDisplay:10.37,2013-10-22 14:30:00,
2013-10-22 16:40:00,66.5,57.6,30.10,North,1,0.0,0.0,73,0.00,CLR,SKC,0.00,WeatherDisplay:10.37,2013-10-22 14:40:00,
2013-10-22 16:50:00,66.2,57.7,30.10,North,1,0.0,0.0,74,0.00,CLR,SKC,0.00,WeatherDisplay:10.37,2013-10-22 14:50:00,
2013-10-22 17:00:00,65.9,57.3,30.10,North,1,0.0,0.0,74,0.00,CLR,SKC,0.00,WeatherDisplay:10.37,2013-10-22 15:00:00,
2013-10-22 17:10:00,65.7,57.1,30.10,North,1,0.0,0.0,74,0.00,CLR,SKC,0.00,WeatherDisplay:10.37,2013-10-22 15:10:00,
2013-10-22 17:20:00,65.1,57.0,30.10,North,1,0.0,0.0,75,0.00,CLR,SKC,0.00,WeatherDisplay:10.37,2013-10-22 15:20:00,
2013-10-22 17:30:00,64.3,56.6,30.10,North,1,0.0,0.0,76,0.00,CLR,SKC,0.00,WeatherDisplay:10.37,2013-10-22 15:30:00,
2013-10-22 17:40:00,63.7,56.3,30.10,North,1,0.0,0.0,77,0.00,CLR,SKC,0.00,WeatherDisplay:10.37,2013-10-22 15:40:00,
2013-10-22 17:50:00,63.1,56.2,30.10,North,1,0.0,0.0,78,0.00,CLR,SKC,0.00,WeatherDisplay:10.37,2013-10-22 15:50:00,
2013-10-22 18:00:00,62.8,55.8,30.11,North,1,0.0,0.0,78,0.00,CLR,SKC,0.00,WeatherDisplay:10.37,2013-10-22 16:00:00,
2013-10-22 18:10:00,62.4,55.8,30.11,North,1,0.0,0.0,79,0.00,CLR,SKC,0.00,WeatherDisplay:10.37,2013-10-22 16:10:00,
2013-10-22 18:20:00,62.1,55.5,30.11,North,1,0.0,0.0,79,0.00,CLR,SKC,0.00,WeatherDisplay:10.37,2013-10-22 16:20:00,
2013-10-22 18:30:00,61.6,55.3,30.11,North,1,0.0,0.0,80,0.00,CLR,SKC,0.00,WeatherDisplay:10.37,2013-10-22 16:30:00,
2013-10-22 18:40:00,61.3,55.5,30.11,North,1,0.0,0.0,81,0.00,CLR,SKC,0.00,WeatherDisplay:10.37,2013-10-22 16:40:00,
2013-10-22 18:50:00,61.0,55.1,30.11,North,1,0.0,0.0,81,0.00,CLR,SKC,0.00,WeatherDisplay:10.37,2013-10-22 16:50:00,
2013-10-22 19:00:00,60.8,55.3,30.11,North,1,0.0,0.0,82,0.00,CLR,SKC,0.00,WeatherDisplay:10.37,2013-10-22 17:00:00,
2013-10-22 19:10:00,60.4,54.9,30.11,North,1,0.0,0.0,82,0.00,CLR,SKC,0.00,WeatherDisplay:10.37,2013-10-22 17:10:00,
2013-10-22 19:20:00,59.9,54.7,30.11,North,1,0.0,0.0,83,0.00,CLR,SKC,0.00,WeatherDisplay:10.37,2013-10-22 17:20:00,
2013-10-22 19:30:00,59.5,54.4,30.11,North,1,0.0,0.0,83,0.00,CLR,SKC,0.00,WeatherDisplay:10.37,2013-10-22 17:30:00,
2013-10-22 19:40:00,59.4,54.5,30.11,North,1,0.0,0.0,84,0.00,CLR,SKC,0.00,WeatherDisplay:10.37,2013-10-22 17:40:00,
2013-10-22 19:50:00,59.5,54.7,30.11,North,1,0.0,0.0,84,0.00,CLR,SKC,0.00,WeatherDisplay:10.37,2013-10-22 17:50:00,
2013-10-22 20:00:00,60.1,55.2,30.11,North,1,0.0,0.0,84,0.00,CLR,SKC,0.00,WeatherDisplay:10.37,2013-10-22 18:00:00,
2013-10-22 20:10:00,60.1,55.2,30.11,North,1,0.0,0.0,84,0.00,CLR,SKC,0.00,WeatherDisplay:10.37,2013-10-22 18:10:00,
2013-10-22 20:20:00,60.4,55.6,30.11,North,1,0.0,0.0,84,0.00,CLR,SKC,0.00,WeatherDisplay:10.37,2013-10-22 18:20:00,
2013-10-22 20:30:00,60.6,55.8,30.12,North,1,0.0,0.0,84,0.00,CLR,SKC,0.00,WeatherDisplay:10.37,2013-10-22 18:30:00,
2013-10-22 20:40:00,60.6,55.4,30.12,North,1,0.0,0.0,83,0.00,CLR,SKC,0.00,WeatherDisplay:10.37,2013-10-22 18:40:00,
2013-10-22 20:50:00,60.6,55.4,30.12,North,1,0.0,0.0,83,0.00,CLR,SKC,0.00,WeatherDisplay:10.37,2013-10-22 18:50:00,
2013-10-22 21:00:00,60.4,55.6,30.12,North,1,0.0,0.0,84,0.00,CLR,SKC,0.00,WeatherDisplay:10.37,2013-10-22 19:00:00,
2013-10-22 21:10:00,60.4,55.6,30.12,North,1,0.0,0.0,84,0.00,CLR,SKC,0.00,WeatherDisplay:10.37,2013-10-22 19:10:00,
2013-10-22 21:20:00,60.3,55.4,30.11,North,1,0.0,0.0,84,0.00,CLR,SKC,0.00,WeatherDisplay:10.37,2013-10-22 19:20:00,
2013-10-22 21:30:00,60.4,55.6,30.11,North,1,0.0,0.0,84,0.00,CLR,SKC,0.00,WeatherDisplay:10.37,2013-10-22 19:30:00,
2013-10-22 21:40:00,60.6,55.8,30.11,North,1,0.0,0.0,84,0.00,CLR,SKC,0.00,WeatherDisplay:10.37,2013-10-22 19:40:00,
2013-10-22 21:50:00,60.6,55.8,30.11,North,1,0.0,0.0,84,0.00,CLR,SKC,0.00,WeatherDisplay:10.37,2013-10-22 19:50:00,
2013-10-22 22:00:00,60.8,56.0,30.11,North,1,0.0,0.0,84,0.00,CLR,SKC,0.00,WeatherDisplay:10.37,2013-10-22 20:00:00,
2013-10-22 22:10:00,61.0,56.1,30.11,North,1,0.0,0.0,84,0.00,CLR,SKC,0.00,WeatherDisplay:10.37,2013-10-22 20:10:00,
2013-10-22 22:20:00,60.9,56.0,30.11,North,1,0.0,0.0,84,0.00,CLR,SKC,0.00,WeatherDisplay:10.37,2013-10-22 20:20:00,
2013-10-22 22:30:00,61.0,56.1,30.11,North,1,0.0,0.0,84,0.00,CLR,SKC,0.00,WeatherDisplay:10.37,2013-10-22 20:30:00,
2013-10-22 22:40:00,61.0,56.4,30.11,North,1,0.0,0.0,85,0.00,CLR,SKC,0.00,WeatherDisplay:10.37,2013-10-22 20:40:00,
2013-10-22 22:50:00,61.2,56.3,30.11,North,1,0.0,0.0,84,0.00,CLR,SKC,0.00,WeatherDisplay:10.37,2013-10-22 20:50:00,
2013-10-22 23:00:00,61.5,56.6,30.10,North,1,0.0,0.0,84,0.00,CLR,SKC,0.00,WeatherDisplay:10.37,2013-10-22 21:00:00,
2013-10-22 23:10:00,61.3,56.5,30.10,North,1,0.0,0.0,84,0.00,CLR,SKC,0.00,WeatherDisplay:10.37,2013-10-22 21:10:00,
2013-10-22 23:20:00,61.3,56.5,30.10,North,1,0.0,0.0,84,0.00,CLR,SKC,0.00,WeatherDisplay:10.37,2013-10-22 21:20:00,
2013-10-22 23:30:00,61.5,56.6,30.10,North,1,0.0,0.0,84,0.00,CLR,SKC,0.00,WeatherDisplay:10.37,2013-10-22 21:30:00,
2013-10-22 23:40:00,61.5,56.6,30.09,North,1,0.0,0.0,84,0.00,CLR,SKC,0.00,WeatherDisplay:10.37,2013-10-22 21:40:00,
2013-10-22 23:50:00,61.3,56.5,30.09,North,1,0.0,0.0,84,0.00,CLR,SKC,0.00,WeatherDisplay:10.37,2013-10-22 21:50:00,